Briggs, TX

4:33 PM CDT on September 18, 2014 (GMT -0500)
Skylark Field | Change Station
CLOSE
Current Station
Airport
Location: Killeen,
Elevation: 846 ft
Nearby Weather Stations
Active Advisory: Flash Flood Watch Active Notice: Public Information Statement

Elev 846 ft 31.09 °N, 97.69 °W | Updated 18 minutes ago

Thunderstorm
Thunderstorm
79 °F
Feels Like 79 °F
N
14
Wind Variable Wind from East
Gusts 20 mph

Today
High -- | Low -- °F
--% Chance of Precip.
Yesterday
High -- | Low -- °F
Precip. -- in
7:17 AM 7:33 PM
Waning Crescent, 24% visible
Pressure 29.86 in
Visibility 10.0 miles
Clouds Few 900 ft
Scattered Clouds 1500 ft
Mostly Cloudy 4800 ft
Dew Point 70 °F
Humidity 74%
Rainfall 0.02 in
Snow Depth Not available.
UV 3 out of 12
Pollen 2.70 out of 12
Air Quality Not available.
Flu Activity Not available.
METAR KILE 182115Z AUTO 08012G17KT 10SM VCTS FEW009 SCT015 BKN048 26/21 A2986 RMK AO1 LTG DSNT SE

More Conditions Fewer Conditions

Pressure 29.86 in
Visibility 10.0 miles
Clouds Few 900 ft
Scattered Clouds 1500 ft
Mostly Cloudy 4800 ft
Dew Point 70 °F
Humidity 74%
Rainfall 0.02 in
Snow Depth Not available.
UV 3 out of 12
Pollen 2.70 out of 12
Air Quality Not available.
Flu Activity Not available.
METAR KILE 182115Z AUTO 08012G17KT 10SM VCTS FEW009 SCT015 BKN048 26/21 A2986 RMK AO1 LTG DSNT SE

More Conditions Fewer Conditions

Nowcast | as of 4:03 PM CDT on September 18, 2014

Flash Flood Watch in effect through Friday morning... Through 6 PM...showers and thunderstorms will develop and move toward the northeast. These storms will produce occasional lightning and moderate rain. Rainfall totals will be up to one inch.

×

10-Day Weather Forecast

Almanac

Astronomy

Sep. 18, 2014 Rise Set
Actual Time 7:17 AM CDT 7:33 PM CDT
Civil Twilight 6:53 AM CDT 7:57 PM CDT
Nautical Twilight 6:25 AM CDT 8:25 PM CDT
Astronomical Twilight 5:56 AM CDT 8:54 PM CDT
Moon 2:26 AM CDT 4:11 PM CDT
Length of Visible Light 13h 03m
Length of Day
12h 15m
Tomorrow will be 1m 52s shorter.
Waning Crescent, 24% of the Moon is Illuminated
Today
Waning Crescent
Sep 24
New
Oct 1
First Quarter
Oct 8
Full
Oct 15
Last Quarter

Today's Extremes

State Highs State Lows

Community

WunderPhotos

Upload Photos

1,754,452 photos uploaded!

WunderBlogs® & News

Nearby

Snow Depth

Station Depth Elevation
No new snow has been reported.

Earthquake Activity

City Distance Mag. Time & Date
No recent earthquake activity has been reported nearby.
Minimum magnitude displayed is 2.5.

Coastal Water Temperatures

Place Temperature
No Stations Reporting

Nearby Weather Stations